Time;durP1;ratioP1;P1;durP2;ratioP2;P2;SDS_P1;SDS_P2;PMS_P1;PMS_P2;Temp;Humidity;BMP_temperature;BMP_pressure;BME280_temperature;BME280_humidity;BME280_pressure;Samples;Min_cycle;Max_cycle;Signal;HPM_P1;HPM_P2
2022/03/24 00:01:45;;;;;;;2.63;2.27;;;6.80;99.00;;;;;;5028291;28;20675;-86
2022/03/24 00:04:11;;;;;;;2.17;2.07;;;6.70;99.20;;;;;;5029697;28;20183;-86
2022/03/24 00:06:37;;;;;;;1.23;1.17;;;6.80;99.60;;;;;;5028244;28;20172;-87
2022/03/24 00:09:03;;;;;;;2.77;2.57;;;6.80;99.90;;;;;;5015828;28;20193;-86
2022/03/24 00:11:30;;;;;;;2.77;2.60;;;6.60;99.90;;;;;;5015318;28;20478;-87
2022/03/24 00:13:56;;;;;;;4.77;2.40;;;6.40;99.90;;;;;;5032573;28;20437;-86
2022/03/24 00:16:21;;;;;;;5.60;2.50;;;6.30;99.90;;;;;;5032762;28;20438;-86
2022/03/24 00:18:47;;;;;;;1.67;1.30;;;6.10;99.90;;;;;;5032700;28;20414;-86
2022/03/24 00:21:14;;;;;;;2.03;1.83;;;5.90;99.90;;;;;;5014993;28;20202;-86
2022/03/24 00:23:39;;;;;;;33.27;3.07;;;5.80;99.90;;;;;;5031402;28;20172;-85
2022/03/24 00:26:05;;;;;;;2.17;1.60;;;5.80;99.90;;;;;;5023353;28;20461;-85
2022/03/24 00:28:33;;;;;;;0.90;0.70;;;5.80;99.90;;;;;;5032291;28;20313;-86
2022/03/24 00:31:00;;;;;;;1.03;0.93;;;5.70;99.90;;;;;;5032356;28;20211;-86
2022/03/24 00:33:26;;;;;;;0.33;0.33;;;5.70;99.90;;;;;;5019246;28;20422;-86
2022/03/24 00:35:52;;;;;;;0.30;0.30;;;5.50;99.90;;;;;;5032051;28;20452;-86
2022/03/24 00:38:17;;;;;;;0.30;0.30;;;5.50;99.90;;;;;;5032397;28;20188;-86
2022/03/24 00:40:44;;;;;;;0.30;0.30;;;5.50;99.90;;;;;;5026909;28;20192;-86
2022/03/24 00:43:10;;;;;;;0.40;0.40;;;5.40;99.90;;;;;;5024823;28;20187;-86
2022/03/24 00:45:40;;;;;;;0.60;0.60;;;5.30;99.90;;;;;;5040979;28;20485;-86
2022/03/24 00:48:06;;;;;;;7.73;5.17;;;5.40;99.90;;;;;;5041177;28;20462;-86
2022/03/24 00:50:32;;;;;;;4.20;3.90;;;5.40;99.90;;;;;;5032703;28;20480;-86
2022/03/24 00:52:57;;;;;;;4.70;4.07;;;5.40;99.90;;;;;;5052023;28;20929;-86
2022/03/24 00:55:23;;;;;;;3.93;1.93;;;5.30;99.90;;;;;;5042797;28;20187;-86
2022/03/24 00:57:51;;;;;;;2.40;2.30;;;5.20;99.90;;;;;;5039559;28;20198;-86
2022/03/24 01:00:20;;;;;;;1.93;1.70;;;5.10;99.90;;;;;;5048101;28;20183;-86
2022/03/24 01:02:48;;;;;;;2.20;1.70;;;5.30;99.90;;;;;;5037057;28;20437;-86
2022/03/24 01:05:17;;;;;;;4.50;4.20;;;5.30;99.90;;;;;;5047402;28;20430;-86
2022/03/24 01:07:44;;;;;;;2.30;2.10;;;5.40;99.90;;;;;;5023144;28;20965;-86
2022/03/24 01:10:11;;;;;;;2.80;2.63;;;5.30;99.90;;;;;;5015632;28;20466;-86
2022/03/24 01:12:39;;;;;;;2.27;2.07;;;5.40;99.90;;;;;;5015120;28;20441;-85
2022/03/24 01:15:07;;;;;;;3.47;3.17;;;5.40;99.90;;;;;;5022894;28;20801;-86
2022/03/24 01:17:34;;;;;;;3.43;1.93;;;5.30;99.90;;;;;;5017727;28;20473;-86
2022/03/24 01:20:00;;;;;;;2.60;2.40;;;5.30;99.90;;;;;;5037906;28;20794;-86
2022/03/24 01:22:25;;;;;;;10.47;6.57;;;5.30;99.90;;;;;;5032115;28;20442;-86
2022/03/24 01:24:51;;;;;;;13.13;2.63;;;5.30;99.90;;;;;;5033810;28;20197;-86
2022/03/24 01:27:17;;;;;;;3.93;3.37;;;5.40;99.90;;;;;;5033587;28;20550;-86
2022/03/24 01:29:44;;;;;;;1.93;1.83;;;5.30;99.90;;;;;;5044042;28;20257;-85
2022/03/24 01:32:10;;;;;;;4.33;4.03;;;5.20;99.90;;;;;;5031882;28;20208;-86
2022/03/24 01:34:36;;;;;;;1.40;1.30;;;5.20;99.90;;;;;;5016953;28;20445;-86
2022/03/24 01:37:03;;;;;;;3.27;3.07;;;5.40;99.90;;;;;;5013658;28;20541;-86
2022/03/24 01:39:29;;;;;;;2.97;1.30;;;5.30;99.90;;;;;;5032649;28;20410;-86
2022/03/24 01:41:54;;;;;;;2.40;1.90;;;4.90;99.90;;;;;;5019681;28;20440;-86
2022/03/24 01:44:21;;;;;;;3.67;1.70;;;;;;;;;;5013667;28;20184;-86
2022/03/24 01:47:00;;;;;;;6.50;2.90;;;5.10;99.90;;;;;;5030854;28;20226;-86
2022/03/24 01:49:27;;;;;;;4.20;2.87;;;5.20;99.90;;;;;;5029500;28;20476;-86
2022/03/24 01:51:53;;;;;;;5.97;5.47;;;5.10;99.90;;;;;;5024276;28;20482;-86
2022/03/24 01:54:21;;;;;;;1.53;1.43;;;5.00;99.90;;;;;;5030684;28;20434;-86
2022/03/24 01:56:48;;;;;;;0.40;0.40;;;4.90;99.90;;;;;;5030913;28;20426;-86
2022/03/24 01:59:14;;;;;;;3.20;1.33;;;4.80;99.90;;;;;;5014777;28;20434;-88
2022/03/24 02:01:41;;;;;;;3.07;2.77;;;4.70;99.90;;;;;;5030313;28;20434;-89
2022/03/24 02:04:08;;;;;;;3.87;3.57;;;4.90;99.90;;;;;;5031197;28;20430;-89
2022/03/24 02:06:35;;;;;;;2.80;2.60;;;4.70;99.90;;;;;;5014871;28;20443;-86
2022/03/24 02:09:01;;;;;;;2.70;2.60;;;4.90;99.90;;;;;;5030652;28;20433;-86
2022/03/24 02:11:28;;;;;;;4.37;3.20;;;4.80;99.90;;;;;;5012969;28;21050;-86
2022/03/24 02:13:57;;;;;;;3.30;3.00;;;4.80;99.90;;;;;;5030318;28;20426;-89
2022/03/24 02:16:27;;;;;;;3.77;2.03;;;4.70;99.90;;;;;;5030730;28;20441;-89
2022/03/24 02:18:59;;;;;;;2.70;2.50;;;4.60;99.90;;;;;;5022733;28;20503;-89
2022/03/24 02:21:26;;;;;;;3.30;3.03;;;4.80;99.90;;;;;;5027475;28;20441;-88
2022/03/24 02:23:51;;;;;;;2.60;2.40;;;4.50;99.90;;;;;;5012978;28;20422;-89
2022/03/24 02:26:17;;;;;;;4.93;2.27;;;4.60;99.90;;;;;;5013911;28;20632;-88
2022/03/24 02:28:45;;;;;;;2.47;2.27;;;4.60;99.90;;;;;;5030590;28;20585;-88
2022/03/24 02:31:13;;;;;;;2.10;2.00;;;4.50;99.90;;;;;;5030469;28;20485;-89
2022/03/24 02:33:40;;;;;;;1.07;0.97;;;4.40;99.90;;;;;;5012968;28;20484;-88
2022/03/24 02:36:07;;;;;;;1.23;1.13;;;4.50;99.90;;;;;;5030040;28;20442;-85
2022/03/24 02:38:33;;;;;;;5.13;3.90;;;4.40;99.90;;;;;;5028390;28;20488;-88
2022/03/24 02:40:59;;;;;;;7.07;4.07;;;4.50;99.90;;;;;;5012892;28;20517;-89
2022/03/24 02:43:25;;;;;;;5.50;3.03;;;4.70;99.90;;;;;;5013004;28;20985;-86
2022/03/24 02:45:53;;;;;;;4.63;3.97;;;5.00;99.90;;;;;;5030085;28;20222;-86
2022/03/24 02:48:22;;;;;;;2.63;2.30;;;4.80;99.90;;;;;;5018111;28;20891;-86
2022/03/24 02:50:48;;;;;;;5.43;2.77;;;4.70;99.90;;;;;;5026073;28;20504;-85
2022/03/24 02:53:17;;;;;;;2.57;1.83;;;5.00;99.90;;;;;;5030315;28;20513;-88
2022/03/24 02:55:43;;;;;;;1.40;1.30;;;5.10;99.90;;;;;;5030478;28;20473;-89
2022/03/24 02:58:08;;;;;;;1.70;1.60;;;4.80;99.90;;;;;;5020288;28;20434;-88
2022/03/24 03:00:34;;;;;;;3.93;2.00;;;5.10;99.90;;;;;;5024218;28;20210;-89
2022/03/24 03:03:00;;;;;;;2.70;2.50;;;4.60;99.90;;;;;;5029203;28;20210;-88
2022/03/24 03:05:25;;;;;;;1.27;0.70;;;4.50;99.90;;;;;;5029085;28;20203;-89
2022/03/24 03:07:51;;;;;;;2.27;2.10;;;4.50;99.90;;;;;;5029958;28;20195;-88
2022/03/24 03:10:17;;;;;;;3.27;2.40;;;4.50;99.90;;;;;;5029247;28;20641;-88
2022/03/24 03:12:46;;;;;;;4.83;3.20;;;5.00;99.90;;;;;;5012224;28;20250;-89
2022/03/24 03:15:12;;;;;;;4.03;3.63;;;5.40;99.90;;;;;;5012031;28;20464;-86
2022/03/24 03:17:38;;;;;;;7.10;2.43;;;5.40;99.90;;;;;;5011856;28;20483;-86
2022/03/24 03:20:05;;;;;;;3.97;2.93;;;5.20;99.90;;;;;;5012996;28;20219;-86
2022/03/24 03:22:32;;;;;;;0.43;0.43;;;5.40;99.90;;;;;;5029707;28;20206;-86
2022/03/24 03:24:58;;;;;;;3.77;3.30;;;5.30;99.90;;;;;;5029509;28;20430;-86
2022/03/24 03:27:24;;;;;;;1.10;1.00;;;5.00;99.90;;;;;;5025899;28;20462;-86
2022/03/24 03:29:49;;;;;;;0.60;0.60;;;5.10;99.90;;;;;;5026745;28;20471;-89
2022/03/24 03:32:15;;;;;;;0.70;0.70;;;5.10;99.90;;;;;;5028483;28;20203;-89
2022/03/24 03:34:41;;;;;;;2.07;1.97;;;5.10;99.90;;;;;;5028517;28;20187;-86
2022/03/24 03:37:07;;;;;;;1.97;1.87;;;5.20;99.90;;;;;;5018446;28;20587;-86
2022/03/24 03:39:34;;;;;;;1.90;1.77;;;5.30;99.90;;;;;;5014059;28;20443;-86
2022/03/24 03:42:00;;;;;;;2.33;1.67;;;5.40;99.90;;;;;;5010239;28;20208;-86
2022/03/24 03:44:27;;;;;;;2.23;2.07;;;5.20;99.90;;;;;;5001513;28;20448;-86
2022/03/24 03:46:53;;;;;;;3.47;3.17;;;5.10;99.90;;;;;;5047702;28;20496;-87
2022/03/24 03:49:20;;;;;;;21.30;3.37;;;5.20;99.90;;;;;;5049372;28;20433;-86
2022/03/24 03:51:46;;;;;;;0.70;0.70;;;5.00;99.90;;;;;;5019301;28;20933;-85
2022/03/24 03:54:12;;;;;;;2.07;1.73;;;5.00;99.90;;;;;;5033529;28;20472;-86
2022/03/24 03:56:38;;;;;;;0.40;0.40;;;5.10;99.90;;;;;;5051812;28;20194;-86
2022/03/24 03:59:05;;;;;;;0.70;0.70;;;5.30;99.90;;;;;;5050157;28;20248;-89
2022/03/24 04:01:30;;;;;;;30.27;3.43;;;5.00;99.90;;;;;;5041321;28;20444;-88
2022/03/24 04:03:57;;;;;;;1.10;1.00;;;4.90;99.90;;;;;;5020965;28;20437;-88
2022/03/24 04:06:24;;;;;;;1.00;0.87;;;4.60;99.90;;;;;;5028100;28;20554;-86
2022/03/24 04:08:50;;;;;;;2.07;1.97;;;4.50;99.90;;;;;;5036952;28;21015;-86
2022/03/24 04:11:16;;;;;;;1.50;1.40;;;4.20;99.90;;;;;;5035155;28;20972;-86
2022/03/24 04:13:42;;;;;;;1.83;1.73;;;4.20;99.90;;;;;;5027222;28;20525;-88
2022/03/24 04:16:12;;;;;;;2.73;2.53;;;4.20;99.90;;;;;;5015550;28;20218;-88
2022/03/24 04:18:43;;;;;;;4.47;3.77;;;4.10;99.90;;;;;;5036303;28;20484;-89
2022/03/24 04:21:09;;;;;;;10.00;4.17;;;4.00;99.90;;;;;;5033187;28;20869;-89
2022/03/24 04:23:37;;;;;;;1.90;1.80;;;3.80;99.90;;;;;;5018527;28;20448;-88
2022/03/24 04:26:03;;;;;;;1.93;1.83;;;3.80;99.90;;;;;;5050818;28;21047;-89
2022/03/24 04:28:29;;;;;;;4.47;4.17;;;3.80;99.90;;;;;;5039784;28;20448;-88
2022/03/24 04:30:55;;;;;;;1.20;1.10;;;3.70;99.90;;;;;;5046618;28;20477;-88
2022/03/24 04:33:20;;;;;;;4.10;2.17;;;3.60;99.90;;;;;;5032734;28;20192;-88
2022/03/24 04:35:46;;;;;;;3.97;2.00;;;3.60;99.90;;;;;;5038835;28;20191;-88
2022/03/24 04:38:12;;;;;;;3.20;3.00;;;3.50;99.90;;;;;;5039748;28;20192;-88
2022/03/24 04:40:38;;;;;;;2.30;1.57;;;3.60;99.90;;;;;;5014911;28;20184;-88
2022/03/24 04:43:04;;;;;;;5.97;1.80;;;3.60;99.90;;;;;;5040875;28;20943;-88
2022/03/24 04:45:32;;;;;;;1.17;1.07;;;3.40;99.90;;;;;;5034653;28;20565;-87
2022/03/24 04:47:58;;;;;;;1.23;1.13;;;3.50;99.90;;;;;;5031649;28;20545;-87
2022/03/24 04:50:24;;;;;;;2.47;2.23;;;3.60;99.90;;;;;;5032264;28;20470;-87
2022/03/24 04:52:50;;;;;;;3.10;2.30;;;3.70;99.90;;;;;;5023270;28;20550;-87
2022/03/24 04:55:16;;;;;;;7.10;4.03;;;4.00;99.90;;;;;;5020169;28;20819;-87
2022/03/24 04:57:42;;;;;;;3.13;2.07;;;4.40;99.90;;;;;;5016354;28;20241;-87
2022/03/24 05:00:09;;;;;;;0.90;0.90;;;4.70;99.90;;;;;;5015021;28;20488;-87
2022/03/24 05:02:36;;;;;;;3.20;1.57;;;5.10;99.90;;;;;;5012683;28;20864;-86
2022/03/24 05:05:02;;;;;;;1.10;1.00;;;4.80;99.90;;;;;;5030435;28;20500;-86
2022/03/24 05:07:27;;;;;;;3.50;3.30;;;4.30;99.90;;;;;;5029539;28;20458;-88
2022/03/24 05:09:53;;;;;;;1.07;0.97;;;4.00;99.90;;;;;;5031177;28;20800;-89
2022/03/24 05:12:19;;;;;;;2.07;1.97;;;3.70;99.90;;;;;;5029959;28;20223;-87
2022/03/24 05:14:46;;;;;;;5.83;5.53;;;3.50;99.90;;;;;;5029485;28;20195;-87
2022/03/24 05:17:12;;;;;;;2.40;2.30;;;3.50;99.90;;;;;;5027744;28;20520;-87
2022/03/24 05:19:39;;;;;;;6.30;5.83;;;3.50;99.90;;;;;;5030760;28;20953;-88
2022/03/24 05:22:05;;;;;;;1.97;1.50;;;3.40;99.90;;;;;;5018139;28;20179;-88
2022/03/24 05:24:30;;;;;;;1.60;1.50;;;3.60;99.90;;;;;;5029213;28;20991;-88
2022/03/24 05:26:56;;;;;;;1.80;1.67;;;3.80;99.90;;;;;;5028758;28;20222;-87
2022/03/24 05:29:21;;;;;;;4.63;2.83;;;4.20;99.90;;;;;;5025807;28;20192;-85
2022/03/24 05:31:47;;;;;;;1.87;1.77;;;4.40;99.90;;;;;;5011855;28;20223;-85
2022/03/24 05:34:12;;;;;;;7.70;3.90;;;4.50;99.90;;;;;;5030602;28;20566;-86
2022/03/24 05:36:38;;;;;;;4.47;4.20;;;4.60;99.90;;;;;;5022422;28;20261;-85
2022/03/24 05:39:04;;;;;;;0.40;0.40;;;4.50;99.90;;;;;;5030013;28;20264;-85
2022/03/24 05:41:30;;;;;;;0.37;0.37;;;4.60;99.90;;;;;;5031517;28;20225;-86
2022/03/24 05:44:05;;;;;;;3.00;1.83;;;4.80;99.90;;;;;;5011703;28;20970;-85
2022/03/24 05:46:32;;;;;;;2.90;1.47;;;4.80;99.90;;;;;;5030519;28;20254;-85
2022/03/24 05:48:58;;;;;;;3.80;3.60;;;4.90;99.90;;;;;;5029949;28;20442;-86
2022/03/24 05:51:24;;;;;;;5.80;2.03;;;5.00;99.90;;;;;;5027962;28;20588;-86
2022/03/24 05:53:50;;;;;;;1.03;0.97;;;5.00;99.90;;;;;;5029894;28;20953;-87
2022/03/24 05:56:16;;;;;;;3.33;3.10;;;5.10;99.90;;;;;;5011170;28;20457;-87
2022/03/24 05:58:42;;;;;;;0.80;0.80;;;5.30;99.90;;;;;;5028140;28;20701;-86
2022/03/24 06:01:09;;;;;;;4.83;4.30;;;5.40;99.90;;;;;;5020322;28;20447;-85
2022/03/24 06:03:35;;;;;;;2.83;2.50;;;5.40;99.90;;;;;;5026781;28;20549;-86
2022/03/24 06:06:02;;;;;;;1.20;1.10;;;5.60;99.90;;;;;;5028735;28;20450;-84
2022/03/24 06:08:28;;;;;;;0.40;0.40;;;5.80;99.90;;;;;;5030548;28;20414;-83
2022/03/24 06:10:53;;;;;;;0.30;0.30;;;5.80;99.90;;;;;;5016643;28;20826;-85
2022/03/24 06:13:19;;;;;;;0.40;0.40;;;5.90;99.90;;;;;;5031324;28;20565;-85
2022/03/24 06:15:46;;;;;;;0.40;0.40;;;5.90;99.90;;;;;;5024780;28;20188;-86
2022/03/24 06:18:11;;;;;;;13.30;3.47;;;6.00;99.90;;;;;;5020453;28;20183;-84
2022/03/24 06:20:37;;;;;;;1.20;1.10;;;6.00;99.90;;;;;;5023304;28;20488;-86
2022/03/24 06:23:02;;;;;;;1.37;1.27;;;6.10;99.90;;;;;;5026683;28;20329;-86
2022/03/24 06:25:28;;;;;;;2.30;2.10;;;6.20;99.90;;;;;;5017296;28;20187;-85
2022/03/24 06:27:55;;;;;;;3.13;2.00;;;6.20;99.90;;;;;;5025198;28;20658;-86
2022/03/24 06:30:21;;;;;;;2.53;2.33;;;6.20;99.90;;;;;;5010887;28;20231;-86
2022/03/24 06:32:46;;;;;;;3.10;2.80;;;6.30;99.90;;;;;;5028112;28;20500;-86
2022/03/24 06:35:13;;;;;;;1.40;0.67;;;6.40;99.90;;;;;;5034902;28;20630;-87
2022/03/24 06:37:42;;;;;;;3.50;1.90;;;6.50;99.90;;;;;;5031911;28;22386;-85
2022/03/24 06:40:10;;;;;;;3.20;2.30;;;6.60;99.90;;;;;;5029424;28;20446;-86
2022/03/24 06:42:36;;;;;;;4.70;3.80;;;6.60;99.90;;;;;;5009838;28;21174;-85
2022/03/24 06:45:04;;;;;;;1.80;1.70;;;6.60;99.90;;;;;;5030355;28;20473;-86
2022/03/24 06:47:29;;;;;;;26.17;2.50;;;6.70;99.90;;;;;;5012990;28;20183;-85
2022/03/24 06:49:55;;;;;;;4.63;1.70;;;6.80;99.90;;;;;;5030340;28;21187;-85
2022/03/24 06:52:20;;;;;;;2.60;2.40;;;6.80;99.90;;;;;;5027560;28;20655;-86
2022/03/24 06:54:46;;;;;;;2.10;1.93;;;6.70;99.90;;;;;;5030145;28;20230;-86
2022/03/24 06:57:14;;;;;;;2.27;2.17;;;6.70;99.90;;;;;;5026880;28;20184;-86
2022/03/24 06:59:40;;;;;;;1.07;0.97;;;6.80;99.90;;;;;;5029093;28;20184;-86
2022/03/24 07:02:06;;;;;;;3.13;2.93;;;6.80;99.90;;;;;;5029055;28;20796;-86
2022/03/24 07:04:32;;;;;;;1.10;0.97;;;6.90;99.90;;;;;;5028497;28;20442;-85
2022/03/24 07:06:58;;;;;;;5.90;5.30;;;7.00;99.90;;;;;;5029972;28;20429;-86
2022/03/24 07:09:23;;;;;;;11.60;4.10;;;7.10;99.90;;;;;;5029385;28;20214;-86
2022/03/24 07:11:49;;;;;;;2.67;2.57;;;7.30;99.90;;;;;;5027436;28;20219;-85
2022/03/24 07:14:14;;;;;;;2.00;1.90;;;7.40;99.90;;;;;;5025491;28;20195;-85
2022/03/24 07:16:40;;;;;;;4.20;3.27;;;7.50;99.90;;;;;;5025111;28;20910;-86
2022/03/24 07:19:06;;;;;;;1.80;1.43;;;7.50;99.90;;;;;;5027388;28;20184;-85
2022/03/24 07:21:32;;;;;;;2.20;2.00;;;7.60;99.90;;;;;;5030653;28;20640;-85
2022/03/24 07:23:57;;;;;;;4.40;3.80;;;7.70;99.90;;;;;;5032998;28;20452;-86
2022/03/24 07:26:23;;;;;;;2.23;2.00;;;7.80;99.90;;;;;;5032914;28;20812;-86
2022/03/24 07:28:49;;;;;;;3.97;3.30;;;7.80;99.90;;;;;;5023519;28;20831;-86
2022/03/24 07:31:17;;;;;;;4.20;3.80;;;7.80;99.90;;;;;;5032334;28;20219;-84
2022/03/24 07:33:43;;;;;;;2.80;2.60;;;7.90;99.90;;;;;;5026703;28;20274;-84
2022/03/24 07:36:09;;;;;;;11.83;4.53;;;8.00;99.90;;;;;;5020258;28;21208;-84
2022/03/24 07:38:35;;;;;;;7.30;4.00;;;8.20;99.90;;;;;;5031672;28;20434;-83
2022/03/24 07:41:00;;;;;;;9.70;4.63;;;8.20;99.90;;;;;;5012198;28;20257;-84
2022/03/24 07:43:26;;;;;;;3.67;2.93;;;8.40;99.90;;;;;;5012836;28;20529;-85
2022/03/24 07:45:53;;;;;;;3.13;2.83;;;8.40;99.90;;;;;;5029643;28;20266;-86
2022/03/24 07:48:25;;;;;;;3.17;2.97;;;8.40;99.90;;;;;;5026093;28;20207;-85
2022/03/24 07:50:53;;;;;;;2.67;2.07;;;8.50;99.90;;;;;;5021567;28;20493;-86
2022/03/24 07:53:30;;;;;;;4.33;3.30;;;8.50;99.90;;;;;;5013311;28;20446;-86
2022/03/24 07:55:57;;;;;;;2.63;2.37;;;8.60;99.90;;;;;;5032095;28;21001;-85
2022/03/24 07:58:23;;;;;;;4.67;3.67;;;8.90;99.90;;;;;;5033427;28;20426;-83
2022/03/24 08:00:49;;;;;;;3.67;2.73;;;8.90;99.90;;;;;;5033116;28;20452;-85
2022/03/24 08:03:19;;;;;;;2.93;1.57;;;9.00;99.90;;;;;;5033151;28;20723;-86
2022/03/24 08:05:46;;;;;;;12.40;2.70;;;9.10;99.90;;;;;;5027372;28;20434;-86
2022/03/24 08:08:12;;;;;;;9.37;4.10;;;9.10;99.90;;;;;;5027407;28;20470;-85
2022/03/24 08:10:40;;;;;;;4.70;3.40;;;9.30;99.90;;;;;;5002544;28;20481;-85
2022/03/24 08:13:06;;;;;;;4.90;3.37;;;9.50;99.90;;;;;;5013940;28;20431;-86
2022/03/24 08:15:34;;;;;;;1.97;1.80;;;9.60;99.90;;;;;;5030019;28;20450;-83
2022/03/24 08:18:00;;;;;;;6.40;3.43;;;9.80;99.90;;;;;;5030440;28;20528;-83
2022/03/24 08:20:25;;;;;;;4.17;3.77;;;9.70;99.90;;;;;;5031345;28;20517;-83
2022/03/24 08:22:52;;;;;;;3.37;3.07;;;10.10;99.90;;;;;;5004805;28;20237;-85
2022/03/24 08:25:18;;;;;;;4.70;2.90;;;10.50;99.90;;;;;;5013281;28;20215;-83
2022/03/24 08:27:44;;;;;;;2.90;2.70;;;10.70;99.90;;;;;;5032182;28;20536;-84
2022/03/24 08:30:09;;;;;;;8.97;2.80;;;11.00;99.90;;;;;;5011997;28;20552;-85
2022/03/24 08:32:35;;;;;;;3.70;2.50;;;11.10;99.60;;;;;;5010078;28;20218;-85
2022/03/24 08:35:00;;;;;;;3.47;2.83;;;10.70;99.80;;;;;;5030753;28;20183;-86
2022/03/24 08:37:26;;;;;;;2.63;1.43;;;10.70;99.70;;;;;;5012438;28;20183;-86
2022/03/24 08:39:51;;;;;;;2.17;1.97;;;10.60;99.60;;;;;;5020107;28;20659;-85
2022/03/24 08:42:17;;;;;;;3.50;3.07;;;10.70;99.90;;;;;;5029907;28;20194;-84
2022/03/24 08:44:43;;;;;;;2.00;1.53;;;10.80;99.90;;;;;;5032312;28;20636;-85
2022/03/24 08:47:09;;;;;;;15.13;4.00;;;10.80;98.70;;;;;;5031816;28;20179;-85
2022/03/24 08:49:34;;;;;;;7.60;2.07;;;10.90;98.80;;;;;;5032173;28;20183;-84
2022/03/24 08:52:00;;;;;;;12.90;2.20;;;11.30;99.00;;;;;;5029572;28;20993;-86
2022/03/24 08:54:26;;;;;;;3.30;1.50;;;11.80;98.20;;;;;;5031161;28;20208;-87
2022/03/24 08:56:52;;;;;;;5.80;1.30;;;11.90;96.90;;;;;;5013793;28;20453;-84
2022/03/24 08:59:18;;;;;;;2.70;1.50;;;12.30;97.30;;;;;;5029635;28;20553;-86
2022/03/24 09:01:44;;;;;;;3.23;1.50;;;12.20;96.40;;;;;;5013232;28;20266;-87
2022/03/24 09:04:10;;;;;;;6.83;1.80;;;12.70;97.20;;;;;;5031591;28;20194;-87
2022/03/24 09:06:37;;;;;;;1.77;1.67;;;13.10;95.90;;;;;;5031945;28;20441;-87
2022/03/24 09:09:04;;;;;;;3.33;3.13;;;13.20;95.30;;;;;;5026374;28;21015;-87
2022/03/24 09:11:30;;;;;;;7.20;1.70;;;13.30;94.90;;;;;;5011143;28;20969;-87
2022/03/24 09:13:56;;;;;;;5.73;2.00;;;12.90;93.80;;;;;;5013429;28;20446;-87
2022/03/24 09:16:21;;;;;;;9.00;3.90;;;12.90;95.80;;;;;;5014236;28;20223;-84
2022/03/24 09:18:47;;;;;;;3.23;1.60;;;12.90;94.90;;;;;;5013198;28;20477;-85
2022/03/24 09:21:13;;;;;;;7.40;3.57;;;12.90;95.30;;;;;;5012287;28;20206;-87
2022/03/24 09:23:39;;;;;;;3.10;2.80;;;13.10;94.80;;;;;;5026468;28;20564;-86
2022/03/24 09:26:04;;;;;;;3.00;2.70;;;13.40;94.60;;;;;;5024289;28;20851;-86
2022/03/24 09:28:31;;;;;;;5.17;3.23;;;13.80;93.60;;;;;;5012203;28;20201;-83
2022/03/24 09:30:57;;;;;;;1.30;1.17;;;13.80;92.50;;;;;;5028558;28;20219;-85
2022/03/24 09:33:23;;;;;;;3.43;3.17;;;14.20;92.90;;;;;;5027048;28;20438;-87
2022/03/24 09:35:50;;;;;;;1.97;1.37;;;14.30;92.10;;;;;;5026709;28;20957;-86
2022/03/24 09:38:20;;;;;;;2.80;1.83;;;14.50;91.00;;;;;;5027505;28;20450;-86
2022/03/24 09:40:46;;;;;;;4.17;2.70;;;14.30;89.50;;;;;;5028253;28;20564;-87
2022/03/24 09:43:15;;;;;;;4.67;4.20;;;14.70;90.30;;;;;;5028183;28;20450;-87
2022/03/24 09:45:42;;;;;;;3.53;2.43;;;14.90;90.20;;;;;;5024263;28;20508;-87
2022/03/24 09:48:10;;;;;;;2.83;1.90;;;14.90;89.20;;;;;;5008088;28;20448;-87
2022/03/24 09:50:37;;;;;;;1.47;1.37;;;15.10;90.30;;;;;;5022760;28;20489;-83
2022/03/24 09:53:03;;;;;;;4.00;2.80;;;15.00;87.00;;;;;;5012811;28;20458;-87
2022/03/24 09:55:32;;;;;;;3.63;3.33;;;14.60;88.50;;;;;;5031208;28;20453;-87
2022/03/24 09:57:59;;;;;;;6.97;3.60;;;14.90;89.50;;;;;;5028468;28;20469;-87
2022/03/24 10:00:25;;;;;;;3.90;3.50;;;15.60;90.00;;;;;;5028392;28;20434;-87
2022/03/24 10:03:10;;;;;;;2.40;1.90;;;16.00;89.10;;;;;;5014361;28;20466;-88
2022/03/24 10:06:00;;;;;;;5.70;4.40;;;16.50;85.30;;;;;;5065045;28;20607;-88
2022/03/24 10:08:27;;;;;;;3.43;2.07;;;16.50;84.10;;;;;;5056611;28;20558;-89
2022/03/24 10:10:57;;;;;;;2.93;2.60;;;17.00;82.60;;;;;;5055710;28;20445;-89
2022/03/24 10:13:25;;;;;;;2.10;2.00;;;17.00;84.40;;;;;;5058731;28;20493;-88
2022/03/24 10:15:51;;;;;;;2.30;2.10;;;16.70;82.40;;;;;;5066056;28;20912;-88
2022/03/24 10:18:17;;;;;;;5.40;2.03;;;16.50;79.70;;;;;;5056535;28;20439;-87
2022/03/24 10:20:42;;;;;;;1.67;1.00;;;17.00;79.50;;;;;;5044433;28;20183;-87
2022/03/24 10:23:11;;;;;;;1.33;1.23;;;16.80;79.40;;;;;;5058315;28;20776;-87
2022/03/24 10:25:42;;;;;;;2.00;1.90;;;16.50;79.70;;;;;;5035048;28;20227;-87
2022/03/24 10:28:08;;;;;;;1.50;1.40;;;17.30;78.80;;;;;;5034561;28;20444;-88
2022/03/24 10:30:59;;;;;;;6.00;3.67;;;17.40;75.20;;;;;;5052181;28;20445;-87
2022/03/24 10:33:32;;;;;;;1.40;1.27;;;17.00;76.60;;;;;;5045535;28;20488;-87
2022/03/24 10:36:26;;;;;;;3.00;2.30;;;17.00;79.20;;;;;;5049039;28;20441;-88
2022/03/24 10:38:54;;;;;;;4.20;2.83;;;17.50;81.60;;;;;;5034700;28;20452;-89
2022/03/24 10:41:21;;;;;;;1.83;1.60;;;17.20;79.90;;;;;;5053597;28;20441;-88
2022/03/24 10:43:50;;;;;;;6.73;4.03;;;18.10;80.10;;;;;;5037557;28;20485;-89
2022/03/24 10:46:16;;;;;;;2.07;1.77;;;18.20;79.10;;;;;;5059953;28;20471;-89
2022/03/24 10:48:43;;;;;;;6.67;1.63;;;18.30;80.50;;;;;;5051492;28;20422;-89
2022/03/24 10:51:09;;;;;;;5.30;3.00;;;18.50;78.20;;;;;;5045545;28;20456;-89
2022/03/24 10:53:42;;;;;;;5.00;2.53;;;18.70;78.80;;;;;;5045563;28;20945;-86
2022/03/24 10:56:20;;;;;;;3.80;2.90;;;18.80;73.60;;;;;;5041057;28;20327;-88
2022/03/24 10:58:55;;;;;;;3.10;2.17;;;19.00;75.00;;;;;;5045779;28;20595;-87
2022/03/24 11:01:22;;;;;;;3.90;2.00;;;18.50;78.70;;;;;;5060909;28;20445;-88
2022/03/24 11:03:48;;;;;;;3.23;2.27;;;19.60;81.20;;;;;;5048815;28;20525;-87
2022/03/24 11:06:19;;;;;;;3.27;2.50;;;19.70;74.80;;;;;;5054220;28;20496;-88
2022/03/24 11:08:51;;;;;;;3.77;2.43;;;19.10;78.20;;;;;;5054357;28;20186;-88
2022/03/24 11:11:17;;;;;;;3.77;3.47;;;19.10;76.00;;;;;;5053596;28;20800;-88
2022/03/24 11:13:44;;;;;;;2.13;1.30;;;18.70;80.20;;;;;;5042361;28;20447;-89
2022/03/24 11:16:14;;;;;;;3.43;1.93;;;19.30;79.30;;;;;;5044160;28;20297;-87
2022/03/24 11:18:40;;;;;;;1.73;0.87;;;19.20;77.00;;;;;;5024189;28;20467;-86
2022/03/24 11:21:15;;;;;;;3.40;2.90;;;19.70;73.70;;;;;;5023508;28;20976;-88
2022/03/24 11:23:41;;;;;;;2.17;1.27;;;19.70;72.70;;;;;;5025250;28;20481;-87
2022/03/24 11:26:08;;;;;;;3.33;2.70;;;19.90;75.90;;;;;;5040161;28;20456;-87
2022/03/24 11:28:37;;;;;;;3.57;2.93;;;20.40;73.90;;;;;;5029201;28;20507;-88
2022/03/24 11:31:09;;;;;;;7.40;2.97;;;20.60;75.10;;;;;;5028111;28;20453;-88
2022/03/24 11:33:40;;;;;;;3.90;2.87;;;20.10;71.10;;;;;;5032241;28;20481;-87
2022/03/24 11:36:07;;;;;;;4.27;3.63;;;20.80;73.00;;;;;;5048043;28;20454;-87
2022/03/24 11:38:33;;;;;;;3.47;2.47;;;21.10;70.30;;;;;;5025979;28;20438;-87
2022/03/24 11:41:17;;;;;;;6.53;3.50;;;21.00;69.00;;;;;;5031186;28;20450;-89
2022/03/24 11:43:48;;;;;;;2.60;1.67;;;20.60;71.70;;;;;;5042558;28;20230;-89
2022/03/24 11:46:26;;;;;;;1.83;1.30;;;20.10;73.90;;;;;;5030647;28;20458;-89
2022/03/24 11:49:18;;;;;;;3.27;2.30;;;20.10;70.80;;;;;;5046227;28;20524;-87
2022/03/24 11:51:48;;;;;;;1.17;0.83;;;20.50;69.60;;;;;;5029119;28;20438;-89
2022/03/24 11:54:34;;;;;;;2.77;2.53;;;20.90;69.90;;;;;;5031621;28;20520;-88
2022/03/24 11:57:23;;;;;;;2.00;1.33;;;21.20;68.90;;;;;;5039677;28;20446;-89
2022/03/24 11:59:50;;;;;;;4.13;2.73;;;21.50;69.90;;;;;;5024201;28;20447;-89
2022/03/24 12:02:18;;;;;;;1.80;1.23;;;20.90;72.00;;;;;;5037140;28;20510;-89
2022/03/24 12:04:49;;;;;;;4.70;2.73;;;21.20;69.60;;;;;;5030744;28;20493;-89
2022/03/24 12:07:18;;;;;;;3.93;3.63;;;21.90;69.00;;;;;;5021891;28;20435;-88
2022/03/24 12:10:01;;;;;;;3.63;2.53;;;21.80;65.80;;;;;;5028133;28;20588;-89
2022/03/24 12:12:28;;;;;;;2.63;2.43;;;21.40;66.80;;;;;;5028320;28;20948;-89
2022/03/24 12:14:54;;;;;;;4.33;3.20;;;20.80;69.60;;;;;;5029131;28;20464;-90
2022/03/24 12:17:22;;;;;;;2.57;2.13;;;21.10;72.50;;;;;;5039150;28;20439;-91
2022/03/24 12:19:55;;;;;;;0.27;0.10;;;21.60;69.20;;;;;;5039448;28;20486;-91
2022/03/24 12:22:30;;;;;;;0.40;0.27;;;21.90;66.70;;;;;;5032856;28;20476;-92
2022/03/24 12:24:58;;;;;;;2.47;2.13;;;21.30;68.80;;;;;;5038669;28;20489;-91
2022/03/24 12:27:25;;;;;;;4.60;2.50;;;20.20;70.60;;;;;;5026520;28;20442;-91
2022/03/24 12:30:11;;;;;;;1.50;1.33;;;19.80;71.20;;;;;;5032683;28;20434;-93
2022/03/24 12:32:37;;;;;;;2.97;2.10;;;20.30;73.80;;;;;;5026881;28;20572;-93
2022/03/24 12:35:04;;;;;;;3.97;3.03;;;20.40;72.60;;;;;;5032738;28;20513;-91
2022/03/24 12:37:35;;;;;;;3.10;1.77;;;20.40;71.10;;;;;;5047943;28;20190;-90
2022/03/24 12:40:09;;;;;;;7.30;4.47;;;20.60;69.00;;;;;;5024744;28;21101;-91
2022/03/24 12:42:45;;;;;;;2.17;1.50;;;21.00;69.90;;;;;;5034765;28;20433;-92
2022/03/24 12:45:27;;;;;;;2.73;1.80;;;21.00;68.20;;;;;;5030897;28;20543;-91
2022/03/24 12:47:56;;;;;;;1.27;1.17;;;21.20;70.00;;;;;;5032204;28;20776;-91
2022/03/24 12:50:25;;;;;;;3.80;2.33;;;21.40;68.00;;;;;;5020159;28;20480;-90
2022/03/24 12:53:02;;;;;;;2.80;1.40;;;21.30;67.50;;;;;;5030835;28;21045;-92
2022/03/24 12:55:33;;;;;;;2.57;2.17;;;21.80;69.60;;;;;;5023870;28;20441;-91